Terminal Aerodrome Forecast
Issued by NWS

Home | Current Version | Previous Version | Text Only | Print | Product List | Glossary On
Versions: 1 2 3 4 5 6 7 8 9 10 11 12 13 14 15 16
954
FTUS43 KJKL 220359 AAA
TAFSJS
TAF AMD
KSJS 220359Z 2204/2224 01006KT P6SM OVC070
      TEMPO 2204/2207 OVC007
     FM220700 VRB04KT 3SM -SHRA OVC010
     FM220900 VRB03KT 2SM -SHRA OVC008 WS020/21030KT
     FM221800 VRB05KT P6SM OVC020
     FM222300 VRB03KT 4SM -SHRA OVC010=

USA.gov is the U.S. government's official web portal to all federal, state and local government web resources and services.